createdAt,value
2019-03-28T14:19:22.637Z,17.50
2019-03-28T16:12:50.500Z,16.10
2019-03-28T16:15:36.136Z,15.90
2019-03-28T16:18:16.599Z,15.90
2019-03-28T16:21:19.505Z,15.90
2019-03-28T16:24:01.020Z,15.80
2019-03-28T18:28:25.630Z,12.30
2019-03-28T18:31:00.749Z,12.20
2019-03-28T18:33:36.615Z,12.30
2019-03-28T18:39:05.015Z,12.30
2019-03-28T18:41:39.987Z,12.20
2019-03-28T18:44:15.199Z,12.20
2019-03-28T18:49:35.023Z,12.20
2019-03-28T18:52:10.157Z,12.20
2019-03-28T18:54:45.210Z,12.20
2019-03-28T19:00:11.835Z,12.10
2019-03-28T19:02:47.158Z,12.00
2019-03-28T19:08:10.794Z,12.00
2019-03-28T19:10:45.696Z,11.90
2019-03-28T19:13:20.844Z,11.90
2019-03-28T19:15:59.166Z,11.80
2019-03-28T19:18:38.025Z,11.90
2019-03-28T19:23:55.518Z,11.90
2019-03-28T19:26:30.680Z,11.90
2019-03-28T19:29:05.779Z,11.90
2019-03-28T19:31:40.826Z,11.90
2019-03-28T19:37:02.061Z,11.90
2019-03-28T19:39:37.298Z,11.90
2019-03-28T19:42:12.367Z,11.90
2019-03-28T19:44:53.398Z,11.80
2019-03-28T19:47:30.474Z,11.70
2019-03-28T19:50:05.480Z,11.70
2019-03-28T19:55:50.277Z,11.60
2019-03-28T19:58:27.186Z,11.60
2019-03-28T20:01:02.084Z,11.60
2019-03-28T20:03:25.456Z,11.60
2019-03-28T20:06:21.343Z,11.60
2019-03-28T20:09:15.708Z,11.60
2019-03-28T20:11:42.944Z,11.60
2019-03-28T20:14:18.935Z,11.60
2019-03-28T20:16:54.182Z,11.60
2019-03-28T20:19:30.031Z,11.60
2019-03-28T20:22:05.180Z,11.60
2019-03-28T20:24:40.714Z,11.60
2019-03-28T20:27:16.952Z,11.70
2019-03-28T20:29:52.604Z,11.70
2019-03-28T20:32:29.489Z,11.70
2019-03-28T20:35:04.845Z,11.70
2019-03-28T20:37:40.389Z,11.70
2019-03-28T20:40:16.041Z,11.70
2019-03-28T20:42:55.646Z,11.70
2019-03-28T20:45:30.973Z,11.70
2019-03-28T20:48:07.606Z,11.70
2019-03-28T20:50:42.737Z,11.70
2019-03-28T20:53:17.921Z,11.70
2019-03-28T20:55:53.001Z,11.70
2019-03-28T20:58:28.849Z,11.70
2019-03-28T21:01:04.877Z,11.70
